sensor_id;sensor_type;location;lat;lon;timestamp;temperature;humidity
21255;DHT22;10785;50.674;17.954;2022-08-11T00:01:11;16.40;99.90
21255;DHT22;10785;50.674;17.954;2022-08-11T00:03:49;16.30;99.90
21255;DHT22;10785;50.674;17.954;2022-08-11T00:06:23;16.30;99.90
21255;DHT22;10785;50.674;17.954;2022-08-11T00:08:53;16.20;99.90
21255;DHT22;10785;50.674;17.954;2022-08-11T00:11:31;16.10;99.90
21255;DHT22;10785;50.674;17.954;2022-08-11T00:14:00;16.00;99.90
21255;DHT22;10785;50.674;17.954;2022-08-11T00:16:29;16.00;99.90
21255;DHT22;10785;50.674;17.954;2022-08-11T00:18:59;15.90;99.90
21255;DHT22;10785;50.674;17.954;2022-08-11T00:21:29;15.80;99.90
21255;DHT22;10785;50.674;17.954;2022-08-11T00:24:19;15.70;99.90
21255;DHT22;10785;50.674;17.954;2022-08-11T00:26:53;15.70;99.90
21255;DHT22;10785;50.674;17.954;2022-08-11T00:29:21;15.70;99.90
21255;DHT22;10785;50.674;17.954;2022-08-11T00:31:52;15.80;99.90
21255;DHT22;10785;50.674;17.954;2022-08-11T00:34:24;15.80;99.90
21255;DHT22;10785;50.674;17.954;2022-08-11T00:36:57;15.80;99.90
21255;DHT22;10785;50.674;17.954;2022-08-11T00:39:27;15.90;99.90
21255;DHT22;10785;50.674;17.954;2022-08-11T00:42:06;15.90;99.90
21255;DHT22;10785;50.674;17.954;2022-08-11T00:44:47;15.90;99.90
21255;DHT22;10785;50.674;17.954;2022-08-11T00:47:26;15.80;99.90
21255;DHT22;10785;50.674;17.954;2022-08-11T00:50:16;15.70;99.90
21255;DHT22;10785;50.674;17.954;2022-08-11T00:53:04;15.70;99.90
21255;DHT22;10785;50.674;17.954;2022-08-11T00:59:20;15.50;99.90
21255;DHT22;10785;50.674;17.954;2022-08-11T01:02:21;15.40;99.90
21255;DHT22;10785;50.674;17.954;2022-08-11T01:05:27;15.30;99.90
21255;DHT22;10785;50.674;17.954;2022-08-11T01:17:52;15.10;99.90
21255;DHT22;10785;50.674;17.954;2022-08-11T01:20:58;15.10;99.90
21255;DHT22;10785;50.674;17.954;2022-08-11T01:23:58;15.00;99.90
21255;DHT22;10785;50.674;17.954;2022-08-11T01:27:05;15.00;99.90
21255;DHT22;10785;50.674;17.954;2022-08-11T01:33:44;15.10;99.90
21255;DHT22;10785;50.674;17.954;2022-08-11T01:36:49;15.40;99.90
21255;DHT22;10785;50.674;17.954;2022-08-11T01:39:45;15.50;99.90
21255;DHT22;10785;50.674;17.954;2022-08-11T01:45:31;15.40;99.90
21255;DHT22;10785;50.674;17.954;2022-08-11T01:48:08;15.30;99.90
21255;DHT22;10785;50.674;17.954;2022-08-11T01:50:53;15.30;99.90
21255;DHT22;10785;50.674;17.954;2022-08-11T01:53:37;15.30;99.90
21255;DHT22;10785;50.674;17.954;2022-08-11T01:56:18;15.30;99.90
21255;DHT22;10785;50.674;17.954;2022-08-11T01:58:59;15.40;99.90
21255;DHT22;10785;50.674;17.954;2022-08-11T02:01:38;15.40;99.90
21255;DHT22;10785;50.674;17.954;2022-08-11T02:04:17;15.40;99.90
21255;DHT22;10785;50.674;17.954;2022-08-11T02:06:54;15.40;99.90
21255;DHT22;10785;50.674;17.954;2022-08-11T02:09:41;15.30;99.90
21255;DHT22;10785;50.674;17.954;2022-08-11T02:12:28;15.20;99.90
21255;DHT22;10785;50.674;17.954;2022-08-11T02:15:13;15.10;99.90
21255;DHT22;10785;50.674;17.954;2022-08-11T02:17:59;15.10;99.90
21255;DHT22;10785;50.674;17.954;2022-08-11T02:20:36;15.10;99.90
21255;DHT22;10785;50.674;17.954;2022-08-11T02:23:31;15.00;99.90
21255;DHT22;10785;50.674;17.954;2022-08-11T02:26:36;15.00;99.90
21255;DHT22;10785;50.674;17.954;2022-08-11T02:29:17;15.00;99.90
21255;DHT22;10785;50.674;17.954;2022-08-11T02:31:53;14.90;99.90
21255;DHT22;10785;50.674;17.954;2022-08-11T02:35:04;14.90;99.90
21255;DHT22;10785;50.674;17.954;2022-08-11T02:37:45;15.00;99.90
21255;DHT22;10785;50.674;17.954;2022-08-11T02:40:23;15.00;99.90
21255;DHT22;10785;50.674;17.954;2022-08-11T02:43:06;15.00;99.90
21255;DHT22;10785;50.674;17.954;2022-08-11T02:45:46;14.90;99.90
21255;DHT22;10785;50.674;17.954;2022-08-11T02:48:28;14.90;99.90
21255;DHT22;10785;50.674;17.954;2022-08-11T02:51:26;14.90;99.90
21255;DHT22;10785;50.674;17.954;2022-08-11T02:54:06;14.90;99.90
21255;DHT22;10785;50.674;17.954;2022-08-11T02:56:45;14.80;99.90
21255;DHT22;10785;50.674;17.954;2022-08-11T02:59:27;14.80;99.90
21255;DHT22;10785;50.674;17.954;2022-08-11T03:05:20;14.80;99.90
21255;DHT22;10785;50.674;17.954;2022-08-11T03:08:04;14.70;99.90
21255;DHT22;10785;50.674;17.954;2022-08-11T03:10:42;14.60;99.90
21255;DHT22;10785;50.674;17.954;2022-08-11T03:13:17;14.60;99.90
21255;DHT22;10785;50.674;17.954;2022-08-11T03:16:12;14.60;99.90
21255;DHT22;10785;50.674;17.954;2022-08-11T03:19:12;14.60;99.90
21255;DHT22;10785;50.674;17.954;2022-08-11T03:21:47;14.50;99.90
21255;DHT22;10785;50.674;17.954;2022-08-11T03:24:35;14.40;99.90
21255;DHT22;10785;50.674;17.954;2022-08-11T03:27:09;14.40;99.90
21255;DHT22;10785;50.674;17.954;2022-08-11T03:29:41;14.30;99.90
21255;DHT22;10785;50.674;17.954;2022-08-11T03:32:23;14.30;99.90
21255;DHT22;10785;50.674;17.954;2022-08-11T03:34:54;14.30;99.90
21255;DHT22;10785;50.674;17.954;2022-08-11T03:37:30;14.20;99.90
21255;DHT22;10785;50.674;17.954;2022-08-11T03:40:35;14.30;99.90
21255;DHT22;10785;50.674;17.954;2022-08-11T03:43:43;14.30;99.90
21255;DHT22;10785;50.674;17.954;2022-08-11T03:46:34;14.30;99.90
21255;DHT22;10785;50.674;17.954;2022-08-11T03:49:24;14.50;99.90
21255;DHT22;10785;50.674;17.954;2022-08-11T03:52:07;14.40;99.90
21255;DHT22;10785;50.674;17.954;2022-08-11T03:54:46;14.50;99.90
21255;DHT22;10785;50.674;17.954;2022-08-11T03:57:56;14.60;99.90
21255;DHT22;10785;50.674;17.954;2022-08-11T04:00:49;14.80;99.90
21255;DHT22;10785;50.674;17.954;2022-08-11T04:03:43;15.60;99.90
21255;DHT22;10785;50.674;17.954;2022-08-11T04:06:56;16.40;99.90
21255;DHT22;10785;50.674;17.954;2022-08-11T04:10:05;17.20;99.90
21255;DHT22;10785;50.674;17.954;2022-08-11T04:12:55;18.10;99.90
21255;DHT22;10785;50.674;17.954;2022-08-11T04:15:44;18.90;99.90
21255;DHT22;10785;50.674;17.954;2022-08-11T04:25:20;19.70;98.70
21255;DHT22;10785;50.674;17.954;2022-08-11T04:31:05;20.90;86.50
21255;DHT22;10785;50.674;17.954;2022-08-11T04:33:58;21.40;79.90
21255;DHT22;10785;50.674;17.954;2022-08-11T04:37:08;21.40;77.20
21255;DHT22;10785;50.674;17.954;2022-08-11T04:40:17;22.00;63.40
21255;DHT22;10785;50.674;17.954;2022-08-11T04:43:15;22.40;56.20
21255;DHT22;10785;50.674;17.954;2022-08-11T04:46:10;23.30;48.20
21255;DHT22;10785;50.674;17.954;2022-08-11T04:52:37;22.90;39.80
21255;DHT22;10785;50.674;17.954;2022-08-11T04:55:45;22.60;44.00
21255;DHT22;10785;50.674;17.954;2022-08-11T04:58:48;22.20;45.60
21255;DHT22;10785;50.674;17.954;2022-08-11T05:01:51;22.90;41.60
21255;DHT22;10785;50.674;17.954;2022-08-11T05:04:46;22.60;43.40
21255;DHT22;10785;50.674;17.954;2022-08-11T05:10:52;23.80;35.50
21255;DHT22;10785;50.674;17.954;2022-08-11T05:13:28;24.10;30.50
21255;DHT22;10785;50.674;17.954;2022-08-11T05:16:18;23.40;32.60
21255;DHT22;10785;50.674;17.954;2022-08-11T05:19:05;23.40;33.50
21255;DHT22;10785;50.674;17.954;2022-08-11T05:21:54;24.20;30.50
21255;DHT22;10785;50.674;17.954;2022-08-11T05:24:44;24.90;27.60
21255;DHT22;10785;50.674;17.954;2022-08-11T05:27:37;24.30;27.40
21255;DHT22;10785;50.674;17.954;2022-08-11T05:30:27;24.50;28.00
21255;DHT22;10785;50.674;17.954;2022-08-11T05:33:19;24.80;27.20
21255;DHT22;10785;50.674;17.954;2022-08-11T05:36:11;25.00;24.60
21255;DHT22;10785;50.674;17.954;2022-08-11T05:38:50;25.00;25.20
21255;DHT22;10785;50.674;17.954;2022-08-11T05:41:40;25.00;24.30
21255;DHT22;10785;50.674;17.954;2022-08-11T05:44:29;25.30;25.10
21255;DHT22;10785;50.674;17.954;2022-08-11T05:47:23;25.80;23.10
21255;DHT22;10785;50.674;17.954;2022-08-11T05:50:11;25.80;23.60
21255;DHT22;10785;50.674;17.954;2022-08-11T05:53:00;26.50;22.00
21255;DHT22;10785;50.674;17.954;2022-08-11T05:55:48;26.80;20.20
21255;DHT22;10785;50.674;17.954;2022-08-11T05:58:37;26.80;20.30
21255;DHT22;10785;50.674;17.954;2022-08-11T06:01:11;26.60;19.90
21255;DHT22;10785;50.674;17.954;2022-08-11T06:03:43;26.90;19.40
21255;DHT22;10785;50.674;17.954;2022-08-11T06:06:30;26.90;19.30
21255;DHT22;10785;50.674;17.954;2022-08-11T06:08:59;25.70;20.70
21255;DHT22;10785;50.674;17.954;2022-08-11T06:11:28;26.10;20.60
21255;DHT22;10785;50.674;17.954;2022-08-11T06:14:11;26.90;20.10
21255;DHT22;10785;50.674;17.954;2022-08-11T06:16:47;27.70;18.10
21255;DHT22;10785;50.674;17.954;2022-08-11T06:19:19;28.00;17.70
21255;DHT22;10785;50.674;17.954;2022-08-11T06:21:49;28.00;17.20
21255;DHT22;10785;50.674;17.954;2022-08-11T06:24:19;27.50;17.70
21255;DHT22;10785;50.674;17.954;2022-08-11T06:26:50;27.40;18.00
21255;DHT22;10785;50.674;17.954;2022-08-11T06:29:48;28.70;16.50
21255;DHT22;10785;50.674;17.954;2022-08-11T06:32:28;27.90;16.70
21255;DHT22;10785;50.674;17.954;2022-08-11T06:35:17;27.20;17.80
21255;DHT22;10785;50.674;17.954;2022-08-11T06:37:59;28.00;16.60
21255;DHT22;10785;50.674;17.954;2022-08-11T06:40:36;28.90;15.20
21255;DHT22;10785;50.674;17.954;2022-08-11T06:43:16;28.40;15.60
21255;DHT22;10785;50.674;17.954;2022-08-11T06:45:54;29.10;15.10
21255;DHT22;10785;50.674;17.954;2022-08-11T06:48:26;27.80;16.20
21255;DHT22;10785;50.674;17.954;2022-08-11T06:50:58;27.70;16.70
21255;DHT22;10785;50.674;17.954;2022-08-11T06:53:42;27.70;16.50
21255;DHT22;10785;50.674;17.954;2022-08-11T06:56:34;27.80;16.70
21255;DHT22;10785;50.674;17.954;2022-08-11T06:59:42;29.10;15.10
21255;DHT22;10785;50.674;17.954;2022-08-11T07:02:32;28.30;15.80
21255;DHT22;10785;50.674;17.954;2022-08-11T07:05:09;28.30;15.80
21255;DHT22;10785;50.674;17.954;2022-08-11T07:08:14;27.70;15.50
21255;DHT22;10785;50.674;17.954;2022-08-11T07:11:33;28.20;15.80
21255;DHT22;10785;50.674;17.954;2022-08-11T07:14:27;28.10;15.30
21255;DHT22;10785;50.674;17.954;2022-08-11T07:17:18;27.60;16.40
21255;DHT22;10785;50.674;17.954;2022-08-11T07:19:52;27.70;16.50
21255;DHT22;10785;50.674;17.954;2022-08-11T07:22:40;27.80;16.00
21255;DHT22;10785;50.674;17.954;2022-08-11T07:25:28;27.10;17.20
21255;DHT22;10785;50.674;17.954;2022-08-11T07:28:20;26.20;18.00
21255;DHT22;10785;50.674;17.954;2022-08-11T07:31:09;25.50;19.50
21255;DHT22;10785;50.674;17.954;2022-08-11T07:33:44;25.00;20.20
21255;DHT22;10785;50.674;17.954;2022-08-11T07:36:38;24.60;21.20
21255;DHT22;10785;50.674;17.954;2022-08-11T07:39:14;24.50;21.30
21255;DHT22;10785;50.674;17.954;2022-08-11T07:41:44;24.10;22.40
21255;DHT22;10785;50.674;17.954;2022-08-11T07:44:15;24.20;22.70
21255;DHT22;10785;50.674;17.954;2022-08-11T07:46:47;24.30;22.70
21255;DHT22;10785;50.674;17.954;2022-08-11T07:49:36;24.40;21.40
21255;DHT22;10785;50.674;17.954;2022-08-11T07:52:24;24.00;22.50
21255;DHT22;10785;50.674;17.954;2022-08-11T07:55:00;24.40;21.70
21255;DHT22;10785;50.674;17.954;2022-08-11T07:57:30;24.70;21.50
21255;DHT22;10785;50.674;17.954;2022-08-11T08:00:37;24.60;20.80
21255;DHT22;10785;50.674;17.954;2022-08-11T08:03:28;24.10;20.20
21255;DHT22;10785;50.674;17.954;2022-08-11T08:06:21;23.90;20.30
21255;DHT22;10785;50.674;17.954;2022-08-11T08:09:09;23.40;21.70
21255;DHT22;10785;50.674;17.954;2022-08-11T08:11:59;23.40;23.10
21255;DHT22;10785;50.674;17.954;2022-08-11T08:14:46;23.40;23.80
21255;DHT22;10785;50.674;17.954;2022-08-11T08:17:33;23.70;23.00
21255;DHT22;10785;50.674;17.954;2022-08-11T08:20:46;23.90;23.30
21255;DHT22;10785;50.674;17.954;2022-08-11T08:23:17;23.80;20.00
21255;DHT22;10785;50.674;17.954;2022-08-11T08:26:02;23.80;20.40
21255;DHT22;10785;50.674;17.954;2022-08-11T08:28:33;23.80;19.10
21255;DHT22;10785;50.674;17.954;2022-08-11T08:31:02;23.90;20.10
21255;DHT22;10785;50.674;17.954;2022-08-11T08:33:31;24.10;18.90
21255;DHT22;10785;50.674;17.954;2022-08-11T08:36:03;23.90;19.40
21255;DHT22;10785;50.674;17.954;2022-08-11T08:38:47;23.80;18.50
21255;DHT22;10785;50.674;17.954;2022-08-11T08:41:19;24.10;18.80
21255;DHT22;10785;50.674;17.954;2022-08-11T08:43:53;24.00;19.20
21255;DHT22;10785;50.674;17.954;2022-08-11T08:46:43;24.10;18.80
21255;DHT22;10785;50.674;17.954;2022-08-11T08:49:16;24.00;19.00
21255;DHT22;10785;50.674;17.954;2022-08-11T08:51:48;23.80;19.10
21255;DHT22;10785;50.674;17.954;2022-08-11T08:54:41;23.70;18.90
21255;DHT22;10785;50.674;17.954;2022-08-11T08:57:12;24.00;18.40
21255;DHT22;10785;50.674;17.954;2022-08-11T08:59:44;24.20;18.10
21255;DHT22;10785;50.674;17.954;2022-08-11T09:02:23;24.20;17.60
21255;DHT22;10785;50.674;17.954;2022-08-11T09:05:01;24.10;17.60
21255;DHT22;10785;50.674;17.954;2022-08-11T09:07:31;23.90;17.90
21255;DHT22;10785;50.674;17.954;2022-08-11T09:10:08;24.00;18.20
21255;DHT22;10785;50.674;17.954;2022-08-11T09:12:39;23.90;18.10
21255;DHT22;10785;50.674;17.954;2022-08-11T09:15:11;23.90;18.80
21255;DHT22;10785;50.674;17.954;2022-08-11T09:17:47;23.90;17.60
21255;DHT22;10785;50.674;17.954;2022-08-11T09:20:19;24.20;16.80
21255;DHT22;10785;50.674;17.954;2022-08-11T09:22:49;24.30;16.30
21255;DHT22;10785;50.674;17.954;2022-08-11T09:25:56;24.30;16.30
21255;DHT22;10785;50.674;17.954;2022-08-11T09:28:44;24.40;17.60
21255;DHT22;10785;50.674;17.954;2022-08-11T09:31:15;24.30;18.00
21255;DHT22;10785;50.674;17.954;2022-08-11T09:33:51;24.40;18.00
21255;DHT22;10785;50.674;17.954;2022-08-11T09:36:21;24.40;17.60
21255;DHT22;10785;50.674;17.954;2022-08-11T09:39:09;24.60;17.20
21255;DHT22;10785;50.674;17.954;2022-08-11T09:41:59;24.50;16.90
21255;DHT22;10785;50.674;17.954;2022-08-11T09:44:31;24.50;16.70
21255;DHT22;10785;50.674;17.954;2022-08-11T09:47:24;24.70;15.30
21255;DHT22;10785;50.674;17.954;2022-08-11T09:49:56;24.70;14.50
21255;DHT22;10785;50.674;17.954;2022-08-11T09:52:29;24.50;15.80
21255;DHT22;10785;50.674;17.954;2022-08-11T09:55:00;24.50;15.40
21255;DHT22;10785;50.674;17.954;2022-08-11T09:57:30;24.50;15.40
21255;DHT22;10785;50.674;17.954;2022-08-11T10:00:16;24.80;15.50
21255;DHT22;10785;50.674;17.954;2022-08-11T10:02:47;25.00;15.30
21255;DHT22;10785;50.674;17.954;2022-08-11T10:05:20;25.10;14.60
21255;DHT22;10785;50.674;17.954;2022-08-11T10:08:07;25.20;15.30
21255;DHT22;10785;50.674;17.954;2022-08-11T10:10:38;24.90;15.30
21255;DHT22;10785;50.674;17.954;2022-08-11T10:13:10;24.50;15.20
21255;DHT22;10785;50.674;17.954;2022-08-11T10:16:03;24.10;15.90
21255;DHT22;10785;50.674;17.954;2022-08-11T10:18:48;24.30;15.90
21255;DHT22;10785;50.674;17.954;2022-08-11T10:21:25;24.40;16.40
21255;DHT22;10785;50.674;17.954;2022-08-11T10:23:58;24.80;15.40
21255;DHT22;10785;50.674;17.954;2022-08-11T10:26:46;25.00;15.70
21255;DHT22;10785;50.674;17.954;2022-08-11T10:29:23;24.70;15.00
21255;DHT22;10785;50.674;17.954;2022-08-11T10:32:19;24.50;15.10
21255;DHT22;10785;50.674;17.954;2022-08-11T10:35:29;24.80;15.00
21255;DHT22;10785;50.674;17.954;2022-08-11T10:37:59;24.90;15.50
21255;DHT22;10785;50.674;17.954;2022-08-11T10:40:45;25.00;14.70
21255;DHT22;10785;50.674;17.954;2022-08-11T10:43:37;25.30;14.40
21255;DHT22;10785;50.674;17.954;2022-08-11T10:46:27;25.30;14.10
21255;DHT22;10785;50.674;17.954;2022-08-11T10:49:13;25.20;12.80
21255;DHT22;10785;50.674;17.954;2022-08-11T10:51:44;25.30;12.80
21255;DHT22;10785;50.674;17.954;2022-08-11T10:54:31;25.00;13.10
21255;DHT22;10785;50.674;17.954;2022-08-11T10:57:18;25.00;13.60
21255;DHT22;10785;50.674;17.954;2022-08-11T11:00:05;24.90;13.20
21255;DHT22;10785;50.674;17.954;2022-08-11T11:02:34;25.10;13.00
21255;DHT22;10785;50.674;17.954;2022-08-11T11:05:08;25.30;12.70
21255;DHT22;10785;50.674;17.954;2022-08-11T11:07:49;25.60;12.80
21255;DHT22;10785;50.674;17.954;2022-08-11T11:10:20;25.30;13.10
21255;DHT22;10785;50.674;17.954;2022-08-11T11:12:52;25.20;13.50
21255;DHT22;10785;50.674;17.954;2022-08-11T11:15:41;25.10;13.40
21255;DHT22;10785;50.674;17.954;2022-08-11T11:18:31;24.70;13.90
21255;DHT22;10785;50.674;17.954;2022-08-11T11:21:05;24.80;13.10
21255;DHT22;10785;50.674;17.954;2022-08-11T11:23:40;25.10;12.70
21255;DHT22;10785;50.674;17.954;2022-08-11T11:26:28;25.70;12.40
21255;DHT22;10785;50.674;17.954;2022-08-11T11:29:16;25.90;12.20
21255;DHT22;10785;50.674;17.954;2022-08-11T11:31:54;25.90;12.40
21255;DHT22;10785;50.674;17.954;2022-08-11T11:34:40;25.80;13.00
21255;DHT22;10785;50.674;17.954;2022-08-11T11:37:22;25.80;13.20
21255;DHT22;10785;50.674;17.954;2022-08-11T11:39:53;25.70;13.50
21255;DHT22;10785;50.674;17.954;2022-08-11T11:42:24;25.60;12.40
21255;DHT22;10785;50.674;17.954;2022-08-11T11:44:53;25.60;12.50
21255;DHT22;10785;50.674;17.954;2022-08-11T11:47:25;25.40;13.10
21255;DHT22;10785;50.674;17.954;2022-08-11T11:49:54;25.30;13.30
21255;DHT22;10785;50.674;17.954;2022-08-11T11:52:23;25.30;13.00
21255;DHT22;10785;50.674;17.954;2022-08-11T11:54:55;25.30;12.70
21255;DHT22;10785;50.674;17.954;2022-08-11T11:57:24;25.30;12.70
21255;DHT22;10785;50.674;17.954;2022-08-11T12:00:28;25.20;12.20
21255;DHT22;10785;50.674;17.954;2022-08-11T12:03:15;25.20;12.00
21255;DHT22;10785;50.674;17.954;2022-08-11T12:05:44;25.40;12.40
21255;DHT22;10785;50.674;17.954;2022-08-11T12:08:14;25.70;11.50
21255;DHT22;10785;50.674;17.954;2022-08-11T12:10:47;25.70;12.00
21255;DHT22;10785;50.674;17.954;2022-08-11T12:13:16;25.70;12.50
21255;DHT22;10785;50.674;17.954;2022-08-11T12:16:03;25.70;12.30
21255;DHT22;10785;50.674;17.954;2022-08-11T12:18:54;25.50;12.40
21255;DHT22;10785;50.674;17.954;2022-08-11T12:21:24;25.40;12.30
21255;DHT22;10785;50.674;17.954;2022-08-11T12:23:56;25.30;12.50
21255;DHT22;10785;50.674;17.954;2022-08-11T12:26:44;25.20;12.20
21255;DHT22;10785;50.674;17.954;2022-08-11T12:29:45;25.10;12.40
21255;DHT22;10785;50.674;17.954;2022-08-11T12:32:23;24.90;12.80
21255;DHT22;10785;50.674;17.954;2022-08-11T12:34:52;24.60;13.10
21255;DHT22;10785;50.674;17.954;2022-08-11T12:37:29;24.60;13.00
21255;DHT22;10785;50.674;17.954;2022-08-11T12:40:00;24.70;12.60
21255;DHT22;10785;50.674;17.954;2022-08-11T12:43:11;24.60;12.60
21255;DHT22;10785;50.674;17.954;2022-08-11T12:46:07;24.90;12.70
21255;DHT22;10785;50.674;17.954;2022-08-11T12:48:43;25.10;11.10
21255;DHT22;10785;50.674;17.954;2022-08-11T12:51:32;25.30;10.50
21255;DHT22;10785;50.674;17.954;2022-08-11T12:54:47;25.40;9.90
21255;DHT22;10785;50.674;17.954;2022-08-11T12:57:25;25.70;10.30
21255;DHT22;10785;50.674;17.954;2022-08-11T13:00:15;26.00;10.30
21255;DHT22;10785;50.674;17.954;2022-08-11T13:03:02;26.00;11.10
21255;DHT22;10785;50.674;17.954;2022-08-11T13:05:53;25.80;10.80
21255;DHT22;10785;50.674;17.954;2022-08-11T13:08:23;25.50;10.30
21255;DHT22;10785;50.674;17.954;2022-08-11T13:10:54;25.30;11.30
21255;DHT22;10785;50.674;17.954;2022-08-11T13:13:41;25.20;11.70
21255;DHT22;10785;50.674;17.954;2022-08-11T13:16:27;25.00;12.10
21255;DHT22;10785;50.674;17.954;2022-08-11T13:18:57;25.00;12.40
21255;DHT22;10785;50.674;17.954;2022-08-11T13:21:28;25.20;12.90
21255;DHT22;10785;50.674;17.954;2022-08-11T13:23:57;25.60;12.00
21255;DHT22;10785;50.674;17.954;2022-08-11T13:26:34;25.60;11.40
21255;DHT22;10785;50.674;17.954;2022-08-11T13:29:17;25.60;10.60
21255;DHT22;10785;50.674;17.954;2022-08-11T13:31:48;25.70;11.40
21255;DHT22;10785;50.674;17.954;2022-08-11T13:34:18;25.70;11.00
21255;DHT22;10785;50.674;17.954;2022-08-11T13:36:49;25.70;10.80
21255;DHT22;10785;50.674;17.954;2022-08-11T13:39:19;25.70;10.90
21255;DHT22;10785;50.674;17.954;2022-08-11T13:41:50;25.80;10.40
21255;DHT22;10785;50.674;17.954;2022-08-11T13:44:20;25.70;10.30
21255;DHT22;10785;50.674;17.954;2022-08-11T13:46:56;25.70;10.80
21255;DHT22;10785;50.674;17.954;2022-08-11T13:49:25;25.70;10.90
21255;DHT22;10785;50.674;17.954;2022-08-11T13:51:55;25.80;10.90
21255;DHT22;10785;50.674;17.954;2022-08-11T13:54:26;25.90;10.90
21255;DHT22;10785;50.674;17.954;2022-08-11T13:56:59;25.90;10.80
21255;DHT22;10785;50.674;17.954;2022-08-11T13:59:28;26.00;10.90
21255;DHT22;10785;50.674;17.954;2022-08-11T14:02:00;25.80;10.50
21255;DHT22;10785;50.674;17.954;2022-08-11T14:04:53;25.60;10.40
21255;DHT22;10785;50.674;17.954;2022-08-11T14:07:24;25.30;10.20
21255;DHT22;10785;50.674;17.954;2022-08-11T14:09:57;25.30;10.00
21255;DHT22;10785;50.674;17.954;2022-08-11T14:12:28;25.20;9.80
21255;DHT22;10785;50.674;17.954;2022-08-11T14:15:20;25.30;9.50
21255;DHT22;10785;50.674;17.954;2022-08-11T14:17:54;25.40;10.10
21255;DHT22;10785;50.674;17.954;2022-08-11T14:20:29;25.60;10.30
21255;DHT22;10785;50.674;17.954;2022-08-11T14:23:22;25.80;10.40
21255;DHT22;10785;50.674;17.954;2022-08-11T14:25:51;25.90;10.20
21255;DHT22;10785;50.674;17.954;2022-08-11T14:28:37;25.70;11.00
21255;DHT22;10785;50.674;17.954;2022-08-11T14:31:12;25.30;11.70
21255;DHT22;10785;50.674;17.954;2022-08-11T14:33:44;24.90;12.20
21255;DHT22;10785;50.674;17.954;2022-08-11T14:36:30;24.70;12.70
21255;DHT22;10785;50.674;17.954;2022-08-11T14:39:02;24.60;12.90
21255;DHT22;10785;50.674;17.954;2022-08-11T14:41:31;24.70;13.10
21255;DHT22;10785;50.674;17.954;2022-08-11T14:44:42;24.80;12.40
21255;DHT22;10785;50.674;17.954;2022-08-11T14:47:34;25.00;12.30
21255;DHT22;10785;50.674;17.954;2022-08-11T14:50:07;25.20;12.00
21255;DHT22;10785;50.674;17.954;2022-08-11T14:52:43;25.20;11.20
21255;DHT22;10785;50.674;17.954;2022-08-11T14:55:13;25.40;11.20
21255;DHT22;10785;50.674;17.954;2022-08-11T14:58:01;25.40;11.00
21255;DHT22;10785;50.674;17.954;2022-08-11T15:00:31;25.40;11.00
21255;DHT22;10785;50.674;17.954;2022-08-11T15:03:03;25.40;10.70
21255;DHT22;10785;50.674;17.954;2022-08-11T15:05:49;25.40;10.90
21255;DHT22;10785;50.674;17.954;2022-08-11T15:08:27;25.50;10.80
21255;DHT22;10785;50.674;17.954;2022-08-11T15:11:28;25.30;11.00
21255;DHT22;10785;50.674;17.954;2022-08-11T15:14:15;25.20;10.90
21255;DHT22;10785;50.674;17.954;2022-08-11T15:17:05;25.00;10.90
21255;DHT22;10785;50.674;17.954;2022-08-11T15:19:40;24.90;11.30
21255;DHT22;10785;50.674;17.954;2022-08-11T15:22:32;25.00;11.10
21255;DHT22;10785;50.674;17.954;2022-08-11T15:25:18;25.20;11.40
21255;DHT22;10785;50.674;17.954;2022-08-11T15:27:49;25.40;11.40
21255;DHT22;10785;50.674;17.954;2022-08-11T15:30:37;25.10;14.80
21255;DHT22;10785;50.674;17.954;2022-08-11T15:33:25;24.10;18.40
21255;DHT22;10785;50.674;17.954;2022-08-11T15:36:14;23.50;20.40
21255;DHT22;10785;50.674;17.954;2022-08-11T15:39:06;22.50;25.80
21255;DHT22;10785;50.674;17.954;2022-08-11T15:41:50;21.60;65.60
21255;DHT22;10785;50.674;17.954;2022-08-11T15:44:41;20.70;99.90
21255;DHT22;10785;50.674;17.954;2022-08-11T15:47:36;20.00;99.90
21255;DHT22;10785;50.674;17.954;2022-08-11T15:50:12;19.10;99.90
21255;DHT22;10785;50.674;17.954;2022-08-11T15:52:47;18.30;99.90
21255;DHT22;10785;50.674;17.954;2022-08-11T15:55:19;17.80;99.90
21255;DHT22;10785;50.674;17.954;2022-08-11T15:57:52;17.60;99.90
21255;DHT22;10785;50.674;17.954;2022-08-11T16:00:39;17.30;99.90
21255;DHT22;10785;50.674;17.954;2022-08-11T16:03:42;17.10;99.90
21255;DHT22;10785;50.674;17.954;2022-08-11T16:06:37;17.10;99.90
21255;DHT22;10785;50.674;17.954;2022-08-11T16:09:19;16.90;99.90
21255;DHT22;10785;50.674;17.954;2022-08-11T16:11:50;16.90;99.90
21255;DHT22;10785;50.674;17.954;2022-08-11T16:14:22;16.80;99.90
21255;DHT22;10785;50.674;17.954;2022-08-11T16:17:10;16.80;99.90
21255;DHT22;10785;50.674;17.954;2022-08-11T16:19:40;16.80;99.90
21255;DHT22;10785;50.674;17.954;2022-08-11T16:22:11;16.80;99.90
21255;DHT22;10785;50.674;17.954;2022-08-11T16:24:41;16.80;99.90
21255;DHT22;10785;50.674;17.954;2022-08-11T16:27:37;16.80;99.90
21255;DHT22;10785;50.674;17.954;2022-08-11T16:30:08;16.80;99.90
21255;DHT22;10785;50.674;17.954;2022-08-11T16:32:39;16.90;99.90
21255;DHT22;10785;50.674;17.954;2022-08-11T16:35:14;16.90;99.90
21255;DHT22;10785;50.674;17.954;2022-08-11T16:38:01;16.90;99.90
21255;DHT22;10785;50.674;17.954;2022-08-11T16:40:50;17.00;99.90
21255;DHT22;10785;50.674;17.954;2022-08-11T16:43:23;17.00;99.90
21255;DHT22;10785;50.674;17.954;2022-08-11T16:46:24;17.10;99.90
21255;DHT22;10785;50.674;17.954;2022-08-11T16:49:14;17.10;99.90
21255;DHT22;10785;50.674;17.954;2022-08-11T16:51:44;17.10;99.90
21255;DHT22;10785;50.674;17.954;2022-08-11T16:54:13;17.10;99.90
21255;DHT22;10785;50.674;17.954;2022-08-11T16:56:45;17.20;99.90
21255;DHT22;10785;50.674;17.954;2022-08-11T16:59:21;17.20;99.90
21255;DHT22;10785;50.674;17.954;2022-08-11T17:01:52;17.20;99.90
21255;DHT22;10785;50.674;17.954;2022-08-11T17:04:27;17.20;99.90
21255;DHT22;10785;50.674;17.954;2022-08-11T17:07:17;17.20;99.90
21255;DHT22;10785;50.674;17.954;2022-08-11T17:10:25;17.20;99.90
21255;DHT22;10785;50.674;17.954;2022-08-11T17:13:25;17.20;99.90
21255;DHT22;10785;50.674;17.954;2022-08-11T17:15:59;17.30;99.90
21255;DHT22;10785;50.674;17.954;2022-08-11T17:18:41;17.30;99.90
21255;DHT22;10785;50.674;17.954;2022-08-11T17:21:13;17.40;99.90
21255;DHT22;10785;50.674;17.954;2022-08-11T17:23:46;17.50;99.90
21255;DHT22;10785;50.674;17.954;2022-08-11T17:26:16;17.40;99.90
21255;DHT22;10785;50.674;17.954;2022-08-11T17:28:47;17.30;99.90